Weather History for Millville, NJ

Change the Weather History Date:

Monday, October 29, 2012

  Actual Average Record
Temperature  
Mean Temperature 54 °F -  
Max Temperature 61 °F 61 °F 77 °F (1984)
Min Temperature 48 °F 39 °F 26 °F (2001)
Degree Days  
Heating Degree Days 10    
Growing Degree Days 4 (Base 50)    
Moisture  
Dew Point 52 °F    
Average Humidity 93    
Maximum Humidity 100    
Minimum Humidity 83    
Precipitation  
Precipitation 4.93 in - - ()
Sea Level Pressure  
Sea Level Pressure 28.87 in    
Wind  
Wind Speed 20 mph (NNW)    
Max Wind Speed 29 mph    
Max Gust Speed 44 mph    
Visibility 3 miles    
Events Rain    
Averages and records for this station are not official NWS values.
T = Trace of Precipitation, MM = Missing Value Source: NWS Daily Summary

Daily Weather History Graph

Daily Weather History Graph

Search for Another Location

Airport:

Trip Planner

Search our weather history database for the weather conditions in past years. The results will help you decide how hot, cold, wet, or windy it might be!

Date:

Astronomy

Oct. 29, 2012 Rise Set
Actual Time 7:25 AM EDT 6:01 PM EDT
Civil Twilight 6:57 AM EDT 6:29 PM EDT
Nautical Twilight 6:26 AM EDT 7:01 PM EDT
Astronomical Twilight 5:54 AM EDT 7:32 PM EDT
Moon 5:52 PM EDT (10/29) 7:13 AM EDT (10/29)
Length of Visible Light 11h 31m
Length of Day
10h 36m
Full, 100% of the Moon is Illuminated
Oct 29
Full
Oct 29
Full
Nov 6
Last Quarter
Nov 13
New
Nov 20
First Quarter

Hourly Weather History & Observations

Time (EDT) Temp. Dew Point Humidity Pressure Visibility Wind Dir Wind Speed Gust Speed Precip Events Conditions
12:35 AM 53.6 °F 50.0 °F 88% 29.50 in 9.0 mi NNE 23.0 mph 32.2 mph 0.04 in Rain Light Rain
12:54 AM 54.0 °F 48.9 °F 83% 29.49 in 7.0 mi NNE 21.9 mph 29.9 mph 0.07 in Rain Light Rain
1:41 AM 53.6 °F 50.0 °F 88% 29.48 in 9.0 mi NNE 20.7 mph 26.5 mph 0.05 in Rain Light Rain
1:54 AM 53.1 °F 50.0 °F 89% 29.46 in 9.0 mi NNE 17.3 mph 27.6 mph 0.06 in Rain Light Rain
2:54 AM 53.1 °F 50.0 °F 89% 29.44 in 5.0 mi NNE 16.1 mph 28.8 mph 0.05 in Rain Rain
3:54 AM 52.0 °F 50.0 °F 93% 29.39 in 7.0 mi North 18.4 mph 25.3 mph 0.10 in Rain Light Rain
4:28 AM 51.8 °F 48.2 °F 88% 29.37 in 6.0 mi North 18.4 mph 29.9 mph 0.08 in Rain Rain
5:20 AM 51.8 °F 48.2 °F 88% 29.34 in 3.0 mi North 18.4 mph 29.9 mph 0.13 in Rain Heavy Rain
5:29 AM 51.8 °F 48.2 °F 88% 29.34 in 3.0 mi North 18.4 mph 26.5 mph 0.17 in Rain Heavy Rain
5:54 AM 51.1 °F 48.9 °F 92% 29.32 in 3.0 mi North 16.1 mph 28.8 mph 0.25 in Rain Heavy Rain
6:05 AM 51.8 °F 48.2 °F 88% 29.32 in 2.0 mi North 19.6 mph 31.1 mph 0.10 in Rain Heavy Rain
6:30 AM 51.8 °F 48.2 °F 88% 29.29 in 1.8 mi NNW 18.4 mph 27.6 mph 0.35 in Rain Heavy Rain
6:51 AM 51.8 °F 48.2 °F 88% 29.26 in 2.0 mi NNW 20.7 mph 27.6 mph 0.53 in Rain Heavy Rain
6:54 AM 51.1 °F 48.9 °F 92% 29.26 in 2.0 mi NNW 19.6 mph 28.8 mph 0.56 in Rain Heavy Rain
7:07 AM 51.8 °F 48.2 °F 88% 29.24 in 2.5 mi NNW 23.0 mph 35.7 mph 0.09 in Rain Heavy Rain
7:24 AM 51.8 °F 48.2 °F 88% 29.23 in 2.5 mi North 21.9 mph 34.5 mph 0.19 in Rain Heavy Rain
7:30 AM 51.8 °F 48.2 °F 88% 29.24 in 2.5 mi NNW 18.4 mph 34.5 mph 0.22 in Rain Heavy Rain
7:54 AM 51.1 °F 48.9 °F 92% 29.22 in 2.0 mi NNW 18.4 mph 31.1 mph 0.34 in Rain Heavy Rain
7:59 AM 51.8 °F 48.2 °F 88% 29.22 in 2.0 mi North 19.6 mph 31.1 mph 0.02 in Rain Heavy Rain
8:12 AM 51.8 °F 48.2 °F 88% 29.22 in 3.0 mi North 23.0 mph 33.4 mph 0.04 in Rain Light Rain
8:23 AM 51.8 °F 50.0 °F 94% 29.21 in 1.8 mi North 19.6 mph 29.9 mph 0.06 in Rain Rain
8:36 AM 51.8 °F 50.0 °F 94% 29.19 in 1.5 mi North 19.6 mph 29.9 mph 0.08 in Rain Light Rain
8:46 AM 51.8 °F 50.0 °F 94% 29.18 in 2.0 mi North 20.7 mph 36.8 mph 0.12 in Rain Heavy Rain
8:54 AM 52.0 °F 50.0 °F 93% 29.17 in 3.0 mi North 19.6 mph 35.7 mph 0.13 in Rain Rain
9:05 AM 51.8 °F 50.0 °F 94% 29.16 in 2.0 mi North 26.5 mph 34.5 mph 0.04 in Rain Heavy Rain
9:13 AM 51.8 °F 50.0 °F 94% 29.14 in 1.5 mi North 21.9 mph 36.8 mph 0.07 in Rain Heavy Rain
9:50 AM 51.8 °F 50.0 °F 94% 29.09 in 1.2 mi North 23.0 mph 32.2 mph 0.19 in Rain Heavy Rain
9:54 AM 52.0 °F 50.0 °F 93% 29.09 in 1.2 mi North 23.0 mph 32.2 mph 0.20 in Rain Heavy Rain
10:16 AM 51.8 °F 51.8 °F 100% 29.07 in 1.2 mi North 23.0 mph 32.2 mph 0.06 in Rain Heavy Rain
10:18 AM 51.8 °F 50.0 °F 94% 29.06 in 1.2 mi North 24.2 mph 32.2 mph 0.06 in Rain Light Rain
10:31 AM 51.8 °F 51.8 °F 100% 29.05 in 1.8 mi North 19.6 mph 28.8 mph 0.09 in Rain Rain
10:54 AM 52.0 °F 51.1 °F 97% 29.02 in 1.2 mi North 19.6 mph 38.0 mph 0.16 in Rain Rain
11:42 AM 53.6 °F 51.8 °F 94% 28.95 in 2.0 mi North 19.6 mph 32.2 mph 0.10 in Rain Rain
11:47 AM 53.6 °F 51.8 °F 94% 28.95 in 1.8 mi NNW 19.6 mph 35.7 mph 0.12 in Rain Heavy Rain
11:54 AM 53.1 °F 51.1 °F 93% 28.93 in 1.0 mi NNW 24.2 mph 35.7 mph 0.16 in Rain Heavy Rain
12:54 PM 53.1 °F 52.0 °F 96% 28.82 in 1.5 mi NNW 24.2 mph 36.8 mph 0.30 in Rain Heavy Rain
1:22 PM 53.6 °F 51.8 °F 94% 28.77 in 1.2 mi NNW 23.0 mph 38.0 mph 0.14 in Rain Heavy Rain
1:30 PM 53.6 °F 51.8 °F 94% 28.76 in 1.5 mi NNW 19.6 mph 38.0 mph 0.17 in Rain Heavy Rain
1:54 PM 54.0 °F 52.0 °F 93% 28.72 in 1.5 mi NNW 20.7 mph 36.8 mph 0.28 in Rain Heavy Rain
2:52 PM 55.4 °F 53.6 °F 94% 28.59 in 1.2 mi North 24.2 mph 34.5 mph 0.37 in Rain Heavy Rain
2:54 PM 55.0 °F 53.1 °F 93% 28.58 in 1.2 mi NNW 24.2 mph 34.5 mph 0.38 in Rain Heavy Rain
2:57 PM 55.4 °F 53.6 °F 94% 28.58 in 1.5 mi NNW 24.2 mph 34.5 mph 0.02 in Rain Heavy Rain
3:09 PM 55.4 °F 53.6 °F 94% 28.56 in 1.2 mi NNW 20.7 mph 38.0 mph 0.10 in Rain Heavy Rain
3:54 PM 55.9 °F 54.0 °F 93% 28.46 in 1.2 mi NNW 20.7 mph 38.0 mph 0.44 in Rain Heavy Rain
4:14 PM 55.4 °F 55.4 °F 100% 28.42 in 0.8 mi NNW 23.0 mph 36.8 mph 0.23 in Rain Heavy Rain
4:18 PM 55.4 °F 55.4 °F 100% 28.41 in 1.0 mi NNW 23.0 mph 35.7 mph 0.28 in Rain Heavy Rain
4:25 PM 55.4 °F 55.4 °F 100% 28.38 in 0.8 mi NW 23.0 mph 39.1 mph 0.38 in Rain Heavy Rain
4:36 PM 55.4 °F 55.4 °F 100% 28.35 in 1.0 mi NW 24.2 mph 41.4 mph 0.50 in Rain Heavy Rain
4:45 PM 55.4 °F 55.4 °F 100% 28.34 in 1.0 mi NNW 25.3 mph 40.3 mph 0.60 in Rain Heavy Rain
4:54 PM 55.9 °F 55.0 °F 97% 28.32 in 1.0 mi NNW 28.8 mph 43.7 mph 0.69 in Rain Heavy Rain
5:01 PM 55.4 °F 55.4 °F 100% 28.31 in 0.8 mi NNW 23.0 mph 43.7 mph 0.08 in Rain Heavy Rain
5:09 PM 55.4 °F 55.4 °F 100% 28.30 in 1.0 mi NNW 23.0 mph 35.7 mph 0.15 in Rain Heavy Rain
5:40 PM 57.2 °F 55.4 °F 94% 28.25 in 2.0 mi NNW 18.4 mph 34.5 mph 0.28 in   Overcast
5:49 PM 57.2 °F 55.4 °F 94% 28.24 in 1.8 mi NNW 24.2 mph 35.7 mph 0.30 in   Overcast
5:54 PM 57.9 °F 57.0 °F 97% 28.23 in 1.8 mi NNW 21.9 mph 32.2 mph 0.31 in   Overcast
6:15 PM 59.0 °F 57.2 °F 94% 28.19 in 2.0 mi NNW 21.9 mph 33.4 mph 0.02 in   Overcast
6:26 PM 60.8 °F 57.2 °F 88% 28.17 in 2.5 mi NNW 24.2 mph 42.6 mph 0.03 in Rain Light Rain
6:33 PM 60.8 °F 57.2 °F 88% 28.16 in 3.0 mi NNW 21.9 mph 38.0 mph 0.03 in Rain Light Rain
6:54 PM 60.1 °F 57.9 °F 93% 31.09 in 2.0 mi NNW 16.1 mph 31.1 mph 0.05 in   Overcast
7:28 PM 60.8 °F 59.0 °F 94% 28.13 in 3.0 mi NW 11.5 mph 24.2 mph 0.04 in Rain Light Rain
7:49 PM 60.8 °F 59.0 °F 94% 28.14 in 2.0 mi NW 12.7 mph 21.9 mph 0.06 in Rain Rain
7:54 PM 61.0 °F 59.0 °F 93% 31.08 in 2.0 mi NNW 13.8 mph 21.9 mph 0.08 in Rain Heavy Rain
8:22 PM 59.0 °F 57.2 °F 94% 28.14 in 1.8 mi North 11.5 mph 17.3 mph 0.05 in Rain Rain
8:28 PM 59.0 °F 57.2 °F 94% 28.14 in 2.0 mi NNW 8.1 mph 21.9 mph 0.06 in Rain Light Rain
8:44 PM 57.2 °F 57.2 °F 100% 28.16 in 2.0 mi West 6.9 mph - 0.08 in Rain Light Rain
8:47 PM 57.2 °F 57.2 °F 100% 28.16 in 2.0 mi West 6.9 mph - 0.08 in Rain Light Rain
8:54 PM 57.9 °F 57.0 °F 97% 31.12 in 2.5 mi WSW 9.2 mph - 0.08 in Rain Light Rain
9:05 PM 57.2 °F 57.2 °F 100% 28.17 in 3.0 mi WSW 10.4 mph - 0.01 in Rain Light Rain
9:14 PM 57.2 °F 55.4 °F 94% 28.19 in 2.5 mi WSW 10.4 mph 18.4 mph 0.03 in Rain Rain
9:28 PM 55.4 °F 53.6 °F 94% 28.22 in 3.0 mi SW 11.5 mph 25.3 mph 0.06 in Rain Light Rain
9:40 PM 53.6 °F 51.8 °F 94% 28.25 in 6.0 mi WSW 15.0 mph 27.6 mph 0.06 in Rain Light Rain
9:54 PM 52.0 °F 51.1 °F 97% 28.29 in 8.0 mi SW 16.1 mph 27.6 mph 0.07 in Rain Light Rain
10:37 PM 50.0 °F 48.2 °F 94% 28.45 in 2.0 mi South 12.7 mph 32.2 mph 0.05 in Rain Rain
10:54 PM 50.0 °F 48.0 °F 93% 28.51 in 2.5 mi South 17.3 mph 31.1 mph 0.09 in Rain Rain
11:01 PM 50.0 °F 48.2 °F 94% 28.53 in 4.0 mi South 11.5 mph 31.1 mph 0.01 in Rain Light Rain
11:46 PM 48.2 °F 46.4 °F 93% 28.65 in 4.0 mi South 18.4 mph 39.1 mph 0.07 in Rain Rain
11:54 PM 48.9 °F 46.0 °F 90% 28.67 in 4.0 mi South 13.8 mph 39.1 mph 0.08 in Rain Rain